sensor_id;sensor_type;location;lat;lon;timestamp;P1;durP1;ratioP1;P2;durP2;ratioP2
20038;SDS011;21737;42.868;25.320;2023-03-23T00:02:00;36.53;;;21.40;;
20038;SDS011;21737;42.868;25.320;2023-03-23T00:05:02;37.37;;;21.80;;
20038;SDS011;21737;42.868;25.320;2023-03-23T00:08:03;43.23;;;23.97;;
20038;SDS011;21737;42.868;25.320;2023-03-23T00:11:04;39.43;;;23.27;;
20038;SDS011;21737;42.868;25.320;2023-03-23T00:14:05;37.83;;;22.37;;
20038;SDS011;21737;42.868;25.320;2023-03-23T00:17:06;40.83;;;22.30;;
20038;SDS011;21737;42.868;25.320;2023-03-23T00:20:06;39.03;;;23.13;;
20038;SDS011;21737;42.868;25.320;2023-03-23T00:23:08;41.37;;;23.57;;
20038;SDS011;21737;42.868;25.320;2023-03-23T00:26:08;47.90;;;26.67;;
20038;SDS011;21737;42.868;25.320;2023-03-23T00:32:14;47.77;;;26.67;;
20038;SDS011;21737;42.868;25.320;2023-03-23T00:35:16;50.80;;;26.67;;
20038;SDS011;21737;42.868;25.320;2023-03-23T00:38:19;48.90;;;27.53;;
20038;SDS011;21737;42.868;25.320;2023-03-23T00:41:19;51.90;;;28.10;;
20038;SDS011;21737;42.868;25.320;2023-03-23T00:44:22;53.27;;;29.40;;
20038;SDS011;21737;42.868;25.320;2023-03-23T00:47:23;52.73;;;28.30;;
20038;SDS011;21737;42.868;25.320;2023-03-23T00:50:24;48.50;;;28.27;;
20038;SDS011;21737;42.868;25.320;2023-03-23T00:53:24;53.07;;;28.07;;
20038;SDS011;21737;42.868;25.320;2023-03-23T00:56:25;51.60;;;27.20;;
20038;SDS011;21737;42.868;25.320;2023-03-23T00:59:26;53.33;;;26.97;;
20038;SDS011;21737;42.868;25.320;2023-03-23T01:02:27;55.17;;;27.73;;
20038;SDS011;21737;42.868;25.320;2023-03-23T01:05:28;54.80;;;28.03;;
20038;SDS011;21737;42.868;25.320;2023-03-23T01:08:32;52.23;;;29.17;;
20038;SDS011;21737;42.868;25.320;2023-03-23T01:11:32;54.73;;;28.33;;
20038;SDS011;21737;42.868;25.320;2023-03-23T01:14:33;50.47;;;27.23;;
20038;SDS011;21737;42.868;25.320;2023-03-23T01:17:34;51.43;;;27.77;;
20038;SDS011;21737;42.868;25.320;2023-03-23T01:20:35;51.63;;;27.37;;
20038;SDS011;21737;42.868;25.320;2023-03-23T01:23:36;52.20;;;26.83;;
20038;SDS011;21737;42.868;25.320;2023-03-23T01:26:37;50.97;;;27.47;;
20038;SDS011;21737;42.868;25.320;2023-03-23T01:29:38;49.23;;;26.13;;
20038;SDS011;21737;42.868;25.320;2023-03-23T01:32:38;47.60;;;26.80;;
20038;SDS011;21737;42.868;25.320;2023-03-23T01:35:40;48.07;;;26.47;;
20038;SDS011;21737;42.868;25.320;2023-03-23T01:38:41;45.40;;;25.47;;
20038;SDS011;21737;42.868;25.320;2023-03-23T01:41:42;44.70;;;24.47;;
20038;SDS011;21737;42.868;25.320;2023-03-23T01:47:49;48.90;;;26.10;;
20038;SDS011;21737;42.868;25.320;2023-03-23T01:50:59;47.20;;;26.10;;
20038;SDS011;21737;42.868;25.320;2023-03-23T01:54:04;49.23;;;26.90;;
20038;SDS011;21737;42.868;25.320;2023-03-23T01:57:06;46.27;;;25.50;;
20038;SDS011;21737;42.868;25.320;2023-03-23T02:00:09;51.97;;;26.10;;
20038;SDS011;21737;42.868;25.320;2023-03-23T02:03:21;50.47;;;26.20;;
20038;SDS011;21737;42.868;25.320;2023-03-23T02:06:24;49.20;;;25.40;;
20038;SDS011;21737;42.868;25.320;2023-03-23T02:09:37;46.90;;;23.27;;
20038;SDS011;21737;42.868;25.320;2023-03-23T02:12:37;43.53;;;24.13;;
20038;SDS011;21737;42.868;25.320;2023-03-23T02:15:54;43.23;;;24.47;;
20038;SDS011;21737;42.868;25.320;2023-03-23T02:18:58;44.87;;;24.67;;
20038;SDS011;21737;42.868;25.320;2023-03-23T02:31:58;46.77;;;25.77;;
20038;SDS011;21737;42.868;25.320;2023-03-23T02:35:02;44.93;;;25.20;;
20038;SDS011;21737;42.868;25.320;2023-03-23T02:38:07;50.63;;;25.90;;
20038;SDS011;21737;42.868;25.320;2023-03-23T02:41:09;47.80;;;26.57;;
20038;SDS011;21737;42.868;25.320;2023-03-23T02:44:11;47.13;;;26.33;;
20038;SDS011;21737;42.868;25.320;2023-03-23T02:47:19;50.37;;;24.60;;
20038;SDS011;21737;42.868;25.320;2023-03-23T02:50:24;43.87;;;25.70;;
20038;SDS011;21737;42.868;25.320;2023-03-23T02:53:27;41.10;;;25.67;;
20038;SDS011;21737;42.868;25.320;2023-03-23T02:56:29;44.43;;;24.50;;
20038;SDS011;21737;42.868;25.320;2023-03-23T02:59:31;41.13;;;23.40;;
20038;SDS011;21737;42.868;25.320;2023-03-23T03:02:33;42.20;;;23.73;;
20038;SDS011;21737;42.868;25.320;2023-03-23T03:11:51;41.37;;;23.63;;
20038;SDS011;21737;42.868;25.320;2023-03-23T03:14:58;37.73;;;22.73;;
20038;SDS011;21737;42.868;25.320;2023-03-23T03:18:05;41.40;;;23.13;;
20038;SDS011;21737;42.868;25.320;2023-03-23T03:21:09;42.60;;;24.27;;
20038;SDS011;21737;42.868;25.320;2023-03-23T03:24:15;41.33;;;23.43;;
20038;SDS011;21737;42.868;25.320;2023-03-23T03:27:20;44.30;;;24.07;;
20038;SDS011;21737;42.868;25.320;2023-03-23T03:30:35;37.33;;;22.63;;
20038;SDS011;21737;42.868;25.320;2023-03-23T03:33:37;39.13;;;22.90;;
20038;SDS011;21737;42.868;25.320;2023-03-23T03:36:38;42.43;;;23.03;;
20038;SDS011;21737;42.868;25.320;2023-03-23T03:39:44;40.00;;;22.60;;
20038;SDS011;21737;42.868;25.320;2023-03-23T03:42:45;37.73;;;22.77;;
20038;SDS011;21737;42.868;25.320;2023-03-23T03:45:46;35.27;;;21.63;;
20038;SDS011;21737;42.868;25.320;2023-03-23T03:48:46;39.27;;;22.90;;
20038;SDS011;21737;42.868;25.320;2023-03-23T03:51:47;34.97;;;21.40;;
20038;SDS011;21737;42.868;25.320;2023-03-23T03:54:54;39.33;;;22.73;;
20038;SDS011;21737;42.868;25.320;2023-03-23T03:57:55;36.67;;;21.90;;
20038;SDS011;21737;42.868;25.320;2023-03-23T04:01:21;36.23;;;22.03;;
20038;SDS011;21737;42.868;25.320;2023-03-23T04:04:25;36.13;;;20.47;;
20038;SDS011;21737;42.868;25.320;2023-03-23T04:07:25;35.67;;;21.23;;
20038;SDS011;21737;42.868;25.320;2023-03-23T04:10:30;35.33;;;20.63;;
20038;SDS011;21737;42.868;25.320;2023-03-23T04:13:31;36.20;;;21.57;;
20038;SDS011;21737;42.868;25.320;2023-03-23T04:16:38;32.73;;;20.57;;
20038;SDS011;21737;42.868;25.320;2023-03-23T04:19:38;34.37;;;19.40;;
20038;SDS011;21737;42.868;25.320;2023-03-23T04:22:40;32.23;;;19.67;;
20038;SDS011;21737;42.868;25.320;2023-03-23T04:25:44;32.13;;;19.20;;
20038;SDS011;21737;42.868;25.320;2023-03-23T04:28:45;31.20;;;19.47;;
20038;SDS011;21737;42.868;25.320;2023-03-23T04:32:04;33.23;;;19.57;;
20038;SDS011;21737;42.868;25.320;2023-03-23T04:35:12;33.43;;;19.80;;
20038;SDS011;21737;42.868;25.320;2023-03-23T04:38:22;32.33;;;19.10;;
20038;SDS011;21737;42.868;25.320;2023-03-23T04:41:28;32.40;;;20.17;;
20038;SDS011;21737;42.868;25.320;2023-03-23T04:44:52;39.53;;;22.60;;
20038;SDS011;21737;42.868;25.320;2023-03-23T04:48:04;40.13;;;23.43;;
20038;SDS011;21737;42.868;25.320;2023-03-23T04:51:15;35.30;;;21.83;;
20038;SDS011;21737;42.868;25.320;2023-03-23T04:54:18;38.50;;;20.60;;
20038;SDS011;21737;42.868;25.320;2023-03-23T04:57:23;36.40;;;21.13;;
20038;SDS011;21737;42.868;25.320;2023-03-23T05:01:01;30.43;;;19.23;;
20038;SDS011;21737;42.868;25.320;2023-03-23T05:04:02;30.70;;;18.20;;
20038;SDS011;21737;42.868;25.320;2023-03-23T05:07:06;36.47;;;22.40;;
20038;SDS011;21737;42.868;25.320;2023-03-23T05:10:12;32.13;;;18.77;;
20038;SDS011;21737;42.868;25.320;2023-03-23T05:13:13;38.87;;;20.50;;
20038;SDS011;21737;42.868;25.320;2023-03-23T05:16:14;34.43;;;21.13;;
20038;SDS011;21737;42.868;25.320;2023-03-23T05:19:15;38.57;;;21.40;;
20038;SDS011;21737;42.868;25.320;2023-03-23T05:22:16;40.43;;;21.83;;
20038;SDS011;21737;42.868;25.320;2023-03-23T05:25:25;42.97;;;21.93;;
20038;SDS011;21737;42.868;25.320;2023-03-23T05:28:40;37.13;;;20.97;;
20038;SDS011;21737;42.868;25.320;2023-03-23T05:31:57;38.60;;;22.60;;
20038;SDS011;21737;42.868;25.320;2023-03-23T05:35:01;44.30;;;25.20;;
20038;SDS011;21737;42.868;25.320;2023-03-23T05:38:05;43.23;;;23.97;;
20038;SDS011;21737;42.868;25.320;2023-03-23T05:41:05;38.10;;;21.80;;
20038;SDS011;21737;42.868;25.320;2023-03-23T05:44:13;46.13;;;24.73;;
20038;SDS011;21737;42.868;25.320;2023-03-23T05:47:22;45.10;;;24.63;;
20038;SDS011;21737;42.868;25.320;2023-03-23T05:50:28;39.53;;;23.17;;
20038;SDS011;21737;42.868;25.320;2023-03-23T05:53:29;42.47;;;23.23;;
20038;SDS011;21737;42.868;25.320;2023-03-23T05:56:34;39.77;;;21.43;;
20038;SDS011;21737;42.868;25.320;2023-03-23T05:59:50;47.80;;;26.70;;
20038;SDS011;21737;42.868;25.320;2023-03-23T06:02:56;43.97;;;23.97;;
20038;SDS011;21737;42.868;25.320;2023-03-23T06:06:05;41.60;;;23.37;;
20038;SDS011;21737;42.868;25.320;2023-03-23T06:09:15;44.37;;;24.37;;
20038;SDS011;21737;42.868;25.320;2023-03-23T06:12:36;40.33;;;21.40;;
20038;SDS011;21737;42.868;25.320;2023-03-23T06:16:03;42.57;;;24.60;;
20038;SDS011;21737;42.868;25.320;2023-03-23T06:19:42;41.37;;;26.37;;
20038;SDS011;21737;42.868;25.320;2023-03-23T06:22:46;37.43;;;22.27;;
20038;SDS011;21737;42.868;25.320;2023-03-23T06:25:59;36.43;;;20.73;;
20038;SDS011;21737;42.868;25.320;2023-03-23T06:29:01;36.97;;;20.50;;
20038;SDS011;21737;42.868;25.320;2023-03-23T06:32:05;32.73;;;19.67;;
20038;SDS011;21737;42.868;25.320;2023-03-23T06:35:06;33.17;;;20.60;;
20038;SDS011;21737;42.868;25.320;2023-03-23T06:38:30;29.07;;;17.23;;
20038;SDS011;21737;42.868;25.320;2023-03-23T06:41:31;30.23;;;18.63;;
20038;SDS011;21737;42.868;25.320;2023-03-23T06:44:32;31.13;;;18.17;;
20038;SDS011;21737;42.868;25.320;2023-03-23T06:47:33;25.33;;;15.97;;
20038;SDS011;21737;42.868;25.320;2023-03-23T06:50:34;50.63;;;29.53;;
20038;SDS011;21737;42.868;25.320;2023-03-23T06:53:36;44.27;;;24.97;;
20038;SDS011;21737;42.868;25.320;2023-03-23T06:56:39;39.30;;;22.73;;
20038;SDS011;21737;42.868;25.320;2023-03-23T06:59:42;27.30;;;17.20;;
20038;SDS011;21737;42.868;25.320;2023-03-23T07:02:43;27.23;;;15.30;;
20038;SDS011;21737;42.868;25.320;2023-03-23T07:05:46;24.13;;;15.10;;
20038;SDS011;21737;42.868;25.320;2023-03-23T07:08:47;23.23;;;14.97;;
20038;SDS011;21737;42.868;25.320;2023-03-23T07:11:55;23.80;;;14.60;;
20038;SDS011;21737;42.868;25.320;2023-03-23T07:15:04;26.73;;;16.17;;
20038;SDS011;21737;42.868;25.320;2023-03-23T07:18:06;19.97;;;11.87;;
20038;SDS011;21737;42.868;25.320;2023-03-23T07:21:13;16.87;;;11.03;;
20038;SDS011;21737;42.868;25.320;2023-03-23T07:24:15;18.80;;;11.70;;
20038;SDS011;21737;42.868;25.320;2023-03-23T07:27:38;21.17;;;13.20;;
20038;SDS011;21737;42.868;25.320;2023-03-23T07:30:40;17.90;;;11.57;;
20038;SDS011;21737;42.868;25.320;2023-03-23T07:33:43;20.13;;;13.20;;
20038;SDS011;21737;42.868;25.320;2023-03-23T07:36:44;18.23;;;12.10;;
20038;SDS011;21737;42.868;25.320;2023-03-23T07:39:45;20.07;;;13.00;;
20038;SDS011;21737;42.868;25.320;2023-03-23T07:42:53;23.63;;;15.30;;
20038;SDS011;21737;42.868;25.320;2023-03-23T07:46:02;18.13;;;12.30;;
20038;SDS011;21737;42.868;25.320;2023-03-23T07:49:16;20.60;;;13.43;;
20038;SDS011;21737;42.868;25.320;2023-03-23T07:52:29;21.13;;;13.17;;
20038;SDS011;21737;42.868;25.320;2023-03-23T07:55:32;23.70;;;15.17;;
20038;SDS011;21737;42.868;25.320;2023-03-23T07:58:59;20.30;;;13.53;;
20038;SDS011;21737;42.868;25.320;2023-03-23T08:02:01;22.47;;;15.03;;
20038;SDS011;21737;42.868;25.320;2023-03-23T08:05:07;18.80;;;12.10;;
20038;SDS011;21737;42.868;25.320;2023-03-23T08:08:27;18.33;;;12.47;;
20038;SDS011;21737;42.868;25.320;2023-03-23T08:11:46;28.13;;;18.90;;
20038;SDS011;21737;42.868;25.320;2023-03-23T08:15:13;20.37;;;13.50;;
20038;SDS011;21737;42.868;25.320;2023-03-23T08:18:26;17.50;;;12.23;;
20038;SDS011;21737;42.868;25.320;2023-03-23T08:21:47;17.70;;;11.73;;
20038;SDS011;21737;42.868;25.320;2023-03-23T08:25:13;19.43;;;14.10;;
20038;SDS011;21737;42.868;25.320;2023-03-23T08:28:41;17.63;;;12.07;;
20038;SDS011;21737;42.868;25.320;2023-03-23T08:31:52;20.83;;;14.60;;
20038;SDS011;21737;42.868;25.320;2023-03-23T08:35:23;23.50;;;15.87;;
20038;SDS011;21737;42.868;25.320;2023-03-23T08:38:44;29.27;;;18.47;;
20038;SDS011;21737;42.868;25.320;2023-03-23T08:42:03;20.13;;;12.97;;
20038;SDS011;21737;42.868;25.320;2023-03-23T08:45:29;19.80;;;12.33;;
20038;SDS011;21737;42.868;25.320;2023-03-23T08:48:48;23.73;;;14.97;;
20038;SDS011;21737;42.868;25.320;2023-03-23T08:52:15;24.50;;;15.50;;
20038;SDS011;21737;42.868;25.320;2023-03-23T08:55:41;19.83;;;12.33;;
20038;SDS011;21737;42.868;25.320;2023-03-23T08:58:58;21.23;;;14.10;;
20038;SDS011;21737;42.868;25.320;2023-03-23T09:02:13;18.30;;;12.23;;
20038;SDS011;21737;42.868;25.320;2023-03-23T09:05:25;18.63;;;12.67;;
20038;SDS011;21737;42.868;25.320;2023-03-23T09:08:50;23.97;;;16.30;;
20038;SDS011;21737;42.868;25.320;2023-03-23T09:11:52;22.13;;;15.23;;
20038;SDS011;21737;42.868;25.320;2023-03-23T09:14:53;20.83;;;13.00;;
20038;SDS011;21737;42.868;25.320;2023-03-23T09:17:53;17.47;;;11.00;;
20038;SDS011;21737;42.868;25.320;2023-03-23T09:20:54;15.23;;;11.30;;
20038;SDS011;21737;42.868;25.320;2023-03-23T09:23:55;18.97;;;13.20;;
20038;SDS011;21737;42.868;25.320;2023-03-23T09:26:58;16.87;;;11.23;;
20038;SDS011;21737;42.868;25.320;2023-03-23T09:29:59;15.23;;;10.97;;
20038;SDS011;21737;42.868;25.320;2023-03-23T09:33:01;16.23;;;11.30;;
20038;SDS011;21737;42.868;25.320;2023-03-23T09:36:03;16.23;;;10.70;;
20038;SDS011;21737;42.868;25.320;2023-03-23T09:39:05;15.60;;;10.70;;
20038;SDS011;21737;42.868;25.320;2023-03-23T09:42:15;17.40;;;10.23;;
20038;SDS011;21737;42.868;25.320;2023-03-23T09:45:23;15.13;;;11.20;;
20038;SDS011;21737;42.868;25.320;2023-03-23T09:51:56;30.23;;;17.07;;
20038;SDS011;21737;42.868;25.320;2023-03-23T09:54:58;17.30;;;10.83;;
20038;SDS011;21737;42.868;25.320;2023-03-23T09:58:01;15.97;;;10.87;;
20038;SDS011;21737;42.868;25.320;2023-03-23T10:01:07;11.17;;;8.70;;
20038;SDS011;21737;42.868;25.320;2023-03-23T10:07:28;11.40;;;8.40;;
20038;SDS011;21737;42.868;25.320;2023-03-23T10:10:31;13.57;;;10.07;;
20038;SDS011;21737;42.868;25.320;2023-03-23T10:20:16;24.10;;;11.17;;
20038;SDS011;21737;42.868;25.320;2023-03-23T10:32:36;31.03;;;13.90;;
20038;SDS011;21737;42.868;25.320;2023-03-23T10:35:52;20.83;;;11.20;;
20038;SDS011;21737;42.868;25.320;2023-03-23T10:39:00;16.73;;;10.20;;
20038;SDS011;21737;42.868;25.320;2023-03-23T10:42:01;14.37;;;9.47;;
20038;SDS011;21737;42.868;25.320;2023-03-23T10:45:20;23.30;;;10.60;;
20038;SDS011;21737;42.868;25.320;2023-03-23T10:48:25;60.57;;;18.63;;
20038;SDS011;21737;42.868;25.320;2023-03-23T10:51:35;14.53;;;9.93;;
20038;SDS011;21737;42.868;25.320;2023-03-23T10:54:38;22.50;;;9.67;;
20038;SDS011;21737;42.868;25.320;2023-03-23T10:57:40;16.70;;;10.73;;
20038;SDS011;21737;42.868;25.320;2023-03-23T11:00:43;21.07;;;11.47;;
20038;SDS011;21737;42.868;25.320;2023-03-23T11:03:46;22.40;;;13.73;;
20038;SDS011;21737;42.868;25.320;2023-03-23T11:06:50;17.40;;;11.13;;
20038;SDS011;21737;42.868;25.320;2023-03-23T11:09:53;14.30;;;8.97;;
20038;SDS011;21737;42.868;25.320;2023-03-23T11:12:57;17.70;;;9.90;;
20038;SDS011;21737;42.868;25.320;2023-03-23T11:15:58;31.90;;;12.17;;
20038;SDS011;21737;42.868;25.320;2023-03-23T11:19:00;32.60;;;13.57;;
20038;SDS011;21737;42.868;25.320;2023-03-23T11:25:05;19.90;;;9.67;;
20038;SDS011;21737;42.868;25.320;2023-03-23T11:28:07;53.00;;;16.33;;
20038;SDS011;21737;42.868;25.320;2023-03-23T11:31:08;15.63;;;9.40;;
20038;SDS011;21737;42.868;25.320;2023-03-23T11:37:22;35.33;;;15.93;;
20038;SDS011;21737;42.868;25.320;2023-03-23T11:40:24;23.70;;;10.97;;
20038;SDS011;21737;42.868;25.320;2023-03-23T11:43:25;17.47;;;10.33;;
20038;SDS011;21737;42.868;25.320;2023-03-23T11:49:42;13.17;;;9.10;;
20038;SDS011;21737;42.868;25.320;2023-03-23T11:59:25;19.27;;;11.10;;
20038;SDS011;21737;42.868;25.320;2023-03-23T12:02:39;25.97;;;11.43;;
20038;SDS011;21737;42.868;25.320;2023-03-23T12:15:02;19.73;;;11.97;;
20038;SDS011;21737;42.868;25.320;2023-03-23T12:18:09;39.33;;;12.07;;
20038;SDS011;21737;42.868;25.320;2023-03-23T12:30:32;19.03;;;11.23;;
20038;SDS011;21737;42.868;25.320;2023-03-23T12:40:03;32.10;;;14.97;;
20038;SDS011;21737;42.868;25.320;2023-03-23T12:43:19;28.73;;;14.17;;
20038;SDS011;21737;42.868;25.320;2023-03-23T12:46:40;19.57;;;11.97;;
20038;SDS011;21737;42.868;25.320;2023-03-23T12:49:50;19.70;;;11.97;;
20038;SDS011;21737;42.868;25.320;2023-03-23T12:53:08;27.27;;;13.40;;
20038;SDS011;21737;42.868;25.320;2023-03-23T13:02:23;25.13;;;13.17;;
20038;SDS011;21737;42.868;25.320;2023-03-23T13:05:32;29.23;;;13.03;;
20038;SDS011;21737;42.868;25.320;2023-03-23T13:08:38;20.67;;;13.17;;
20038;SDS011;21737;42.868;25.320;2023-03-23T13:11:39;36.17;;;13.07;;
20038;SDS011;21737;42.868;25.320;2023-03-23T13:20:57;32.03;;;12.83;;
20038;SDS011;21737;42.868;25.320;2023-03-23T13:24:00;43.13;;;25.67;;
20038;SDS011;21737;42.868;25.320;2023-03-23T13:27:04;25.40;;;14.23;;
20038;SDS011;21737;42.868;25.320;2023-03-23T13:30:05;19.07;;;12.33;;
20038;SDS011;21737;42.868;25.320;2023-03-23T13:33:18;20.80;;;12.43;;
20038;SDS011;21737;42.868;25.320;2023-03-23T13:42:50;25.33;;;13.70;;
20038;SDS011;21737;42.868;25.320;2023-03-23T13:45:51;23.63;;;13.27;;
20038;SDS011;21737;42.868;25.320;2023-03-23T13:52:15;33.20;;;14.63;;
20038;SDS011;21737;42.868;25.320;2023-03-23T13:58:43;15.93;;;10.33;;
20038;SDS011;21737;42.868;25.320;2023-03-23T14:01:44;29.53;;;12.43;;
20038;SDS011;21737;42.868;25.320;2023-03-23T14:04:45;19.33;;;11.87;;
20038;SDS011;21737;42.868;25.320;2023-03-23T14:07:57;15.50;;;10.43;;
20038;SDS011;21737;42.868;25.320;2023-03-23T14:11:45;19.90;;;11.27;;
20038;SDS011;21737;42.868;25.320;2023-03-23T14:14:23;24.13;;;12.37;;
20038;SDS011;21737;42.868;25.320;2023-03-23T14:17:26;18.17;;;11.50;;
20038;SDS011;21737;42.868;25.320;2023-03-23T14:20:30;18.03;;;10.50;;
20038;SDS011;21737;42.868;25.320;2023-03-23T14:23:33;25.30;;;11.90;;
20038;SDS011;21737;42.868;25.320;2023-03-23T14:26:34;14.33;;;10.57;;
20038;SDS011;21737;42.868;25.320;2023-03-23T14:29:36;23.37;;;11.20;;
20038;SDS011;21737;42.868;25.320;2023-03-23T14:32:36;24.60;;;13.97;;
20038;SDS011;21737;42.868;25.320;2023-03-23T14:35:37;31.67;;;12.37;;
20038;SDS011;21737;42.868;25.320;2023-03-23T14:38:39;34.97;;;14.93;;
20038;SDS011;21737;42.868;25.320;2023-03-23T14:41:40;27.30;;;14.07;;
20038;SDS011;21737;42.868;25.320;2023-03-23T14:44:45;42.33;;;14.67;;
20038;SDS011;21737;42.868;25.320;2023-03-23T14:47:54;24.03;;;12.23;;
20038;SDS011;21737;42.868;25.320;2023-03-23T14:50:58;22.03;;;12.40;;
20038;SDS011;21737;42.868;25.320;2023-03-23T14:53:59;21.10;;;11.57;;
20038;SDS011;21737;42.868;25.320;2023-03-23T14:57:11;33.47;;;12.83;;
20038;SDS011;21737;42.868;25.320;2023-03-23T15:00:13;32.53;;;20.30;;
20038;SDS011;21737;42.868;25.320;2023-03-23T15:03:16;39.77;;;14.03;;
20038;SDS011;21737;42.868;25.320;2023-03-23T15:06:17;31.37;;;14.30;;
20038;SDS011;21737;42.868;25.320;2023-03-23T15:09:21;45.00;;;16.20;;
20038;SDS011;21737;42.868;25.320;2023-03-23T15:12:24;30.57;;;13.10;;
20038;SDS011;21737;42.868;25.320;2023-03-23T15:15:30;20.47;;;12.63;;
20038;SDS011;21737;42.868;25.320;2023-03-23T15:18:33;30.50;;;13.83;;
20038;SDS011;21737;42.868;25.320;2023-03-23T15:21:36;24.03;;;15.47;;
20038;SDS011;21737;42.868;25.320;2023-03-23T15:24:47;27.53;;;15.60;;
20038;SDS011;21737;42.868;25.320;2023-03-23T15:31:04;36.07;;;16.37;;
20038;SDS011;21737;42.868;25.320;2023-03-23T15:34:06;31.87;;;17.00;;
20038;SDS011;21737;42.868;25.320;2023-03-23T15:37:21;25.53;;;14.50;;
20038;SDS011;21737;42.868;25.320;2023-03-23T15:40:24;24.90;;;14.97;;
20038;SDS011;21737;42.868;25.320;2023-03-23T15:43:35;27.23;;;13.70;;
20038;SDS011;21737;42.868;25.320;2023-03-23T15:46:49;44.23;;;16.73;;
20038;SDS011;21737;42.868;25.320;2023-03-23T15:50:04;30.70;;;14.43;;
20038;SDS011;21737;42.868;25.320;2023-03-23T15:56:28;22.87;;;12.40;;
20038;SDS011;21737;42.868;25.320;2023-03-23T15:59:30;20.63;;;11.67;;
20038;SDS011;21737;42.868;25.320;2023-03-23T16:02:32;31.57;;;14.20;;
20038;SDS011;21737;42.868;25.320;2023-03-23T16:05:35;21.90;;;14.33;;
20038;SDS011;21737;42.868;25.320;2023-03-23T16:08:37;17.27;;;11.40;;
20038;SDS011;21737;42.868;25.320;2023-03-23T16:11:41;27.97;;;14.30;;
20038;SDS011;21737;42.868;25.320;2023-03-23T16:14:43;33.47;;;14.27;;
20038;SDS011;21737;42.868;25.320;2023-03-23T16:17:45;32.17;;;15.70;;
20038;SDS011;21737;42.868;25.320;2023-03-23T16:20:48;34.07;;;19.43;;
20038;SDS011;21737;42.868;25.320;2023-03-23T16:23:50;39.80;;;24.17;;
20038;SDS011;21737;42.868;25.320;2023-03-23T16:26:52;32.57;;;21.77;;
20038;SDS011;21737;42.868;25.320;2023-03-23T16:29:54;42.27;;;24.20;;
20038;SDS011;21737;42.868;25.320;2023-03-23T16:33:04;38.40;;;23.73;;
20038;SDS011;21737;42.868;25.320;2023-03-23T16:36:08;44.50;;;24.73;;
20038;SDS011;21737;42.868;25.320;2023-03-23T16:39:10;46.30;;;26.07;;
20038;SDS011;21737;42.868;25.320;2023-03-23T16:42:12;39.97;;;22.70;;
20038;SDS011;21737;42.868;25.320;2023-03-23T16:45:15;35.67;;;19.27;;
20038;SDS011;21737;42.868;25.320;2023-03-23T16:48:18;31.07;;;18.87;;
20038;SDS011;21737;42.868;25.320;2023-03-23T16:51:20;27.97;;;18.63;;
20038;SDS011;21737;42.868;25.320;2023-03-23T16:54:22;25.50;;;16.47;;
20038;SDS011;21737;42.868;25.320;2023-03-23T16:57:24;36.20;;;21.10;;
20038;SDS011;21737;42.868;25.320;2023-03-23T17:00:26;44.23;;;26.87;;
20038;SDS011;21737;42.868;25.320;2023-03-23T17:03:31;37.60;;;23.80;;
20038;SDS011;21737;42.868;25.320;2023-03-23T17:06:33;46.70;;;26.77;;
20038;SDS011;21737;42.868;25.320;2023-03-23T17:09:35;45.37;;;28.20;;
20038;SDS011;21737;42.868;25.320;2023-03-23T17:12:37;44.97;;;28.67;;
20038;SDS011;21737;42.868;25.320;2023-03-23T17:15:40;49.77;;;32.17;;
20038;SDS011;21737;42.868;25.320;2023-03-23T17:18:44;55.20;;;32.10;;
20038;SDS011;21737;42.868;25.320;2023-03-23T17:21:49;43.53;;;28.33;;
20038;SDS011;21737;42.868;25.320;2023-03-23T17:24:55;46.53;;;27.90;;
20038;SDS011;21737;42.868;25.320;2023-03-23T17:28:00;37.60;;;24.07;;
20038;SDS011;21737;42.868;25.320;2023-03-23T17:31:07;46.10;;;28.73;;
20038;SDS011;21737;42.868;25.320;2023-03-23T17:34:11;42.00;;;25.30;;
20038;SDS011;21737;42.868;25.320;2023-03-23T17:37:13;36.17;;;23.33;;
20038;SDS011;21737;42.868;25.320;2023-03-23T17:40:18;35.13;;;22.77;;
20038;SDS011;21737;42.868;25.320;2023-03-23T17:43:19;46.53;;;26.50;;
20038;SDS011;21737;42.868;25.320;2023-03-23T17:46:22;33.80;;;21.67;;
20038;SDS011;21737;42.868;25.320;2023-03-23T17:49:27;37.40;;;24.53;;
20038;SDS011;21737;42.868;25.320;2023-03-23T17:52:30;40.80;;;23.33;;
20038;SDS011;21737;42.868;25.320;2023-03-23T17:55:32;32.13;;;21.77;;
20038;SDS011;21737;42.868;25.320;2023-03-23T17:58:34;44.70;;;26.93;;
20038;SDS011;21737;42.868;25.320;2023-03-23T18:01:38;42.17;;;27.00;;
20038;SDS011;21737;42.868;25.320;2023-03-23T18:04:40;47.40;;;28.23;;
20038;SDS011;21737;42.868;25.320;2023-03-23T18:07:45;39.90;;;24.17;;
20038;SDS011;21737;42.868;25.320;2023-03-23T18:10:47;42.17;;;26.20;;
20038;SDS011;21737;42.868;25.320;2023-03-23T18:13:52;43.50;;;25.43;;
20038;SDS011;21737;42.868;25.320;2023-03-23T18:16:57;34.53;;;21.60;;
20038;SDS011;21737;42.868;25.320;2023-03-23T18:19:59;36.87;;;22.57;;
20038;SDS011;21737;42.868;25.320;2023-03-23T18:23:01;41.47;;;23.70;;
20038;SDS011;21737;42.868;25.320;2023-03-23T18:26:06;34.87;;;24.07;;
20038;SDS011;21737;42.868;25.320;2023-03-23T18:29:08;35.03;;;21.60;;
20038;SDS011;21737;42.868;25.320;2023-03-23T18:32:10;34.23;;;20.83;;
20038;SDS011;21737;42.868;25.320;2023-03-23T18:35:11;38.60;;;23.40;;
20038;SDS011;21737;42.868;25.320;2023-03-23T18:38:13;33.50;;;21.00;;
20038;SDS011;21737;42.868;25.320;2023-03-23T18:41:17;36.33;;;22.97;;
20038;SDS011;21737;42.868;25.320;2023-03-23T18:44:19;36.57;;;21.90;;
20038;SDS011;21737;42.868;25.320;2023-03-23T18:47:26;38.63;;;23.83;;
20038;SDS011;21737;42.868;25.320;2023-03-23T18:50:38;35.57;;;21.30;;
20038;SDS011;21737;42.868;25.320;2023-03-23T18:53:39;34.93;;;22.80;;
20038;SDS011;21737;42.868;25.320;2023-03-23T18:56:41;35.77;;;22.47;;
20038;SDS011;21737;42.868;25.320;2023-03-23T18:59:43;32.43;;;21.03;;
20038;SDS011;21737;42.868;25.320;2023-03-23T19:02:45;34.80;;;22.30;;
20038;SDS011;21737;42.868;25.320;2023-03-23T19:05:53;37.20;;;24.10;;
20038;SDS011;21737;42.868;25.320;2023-03-23T19:09:01;34.33;;;22.17;;
20038;SDS011;21737;42.868;25.320;2023-03-23T19:12:03;32.93;;;18.90;;
20038;SDS011;21737;42.868;25.320;2023-03-23T19:15:05;31.07;;;19.77;;
20038;SDS011;21737;42.868;25.320;2023-03-23T19:18:10;30.03;;;18.77;;
20038;SDS011;21737;42.868;25.320;2023-03-23T19:21:12;28.87;;;18.80;;
20038;SDS011;21737;42.868;25.320;2023-03-23T19:24:22;27.77;;;18.33;;
20038;SDS011;21737;42.868;25.320;2023-03-23T19:27:29;37.17;;;22.67;;
20038;SDS011;21737;42.868;25.320;2023-03-23T19:30:31;35.20;;;19.07;;
20038;SDS011;21737;42.868;25.320;2023-03-23T19:33:35;31.97;;;19.33;;
20038;SDS011;21737;42.868;25.320;2023-03-23T19:36:38;29.80;;;17.87;;
20038;SDS011;21737;42.868;25.320;2023-03-23T19:39:40;32.87;;;18.53;;
20038;SDS011;21737;42.868;25.320;2023-03-23T19:42:43;30.90;;;17.40;;
20038;SDS011;21737;42.868;25.320;2023-03-23T19:45:45;32.27;;;17.40;;
20038;SDS011;21737;42.868;25.320;2023-03-23T19:48:47;29.80;;;18.90;;